Time;durP1;ratioP1;P1;durP2;ratioP2;P2;SDS_P1;SDS_P2;PMS_P1;PMS_P2;Temp;Humidity;BMP_temperature;BMP_pressure;BME280_temperature;BME280_humidity;BME280_pressure;Samples;Min_cycle;Max_cycle;Signal;HPM_P1;HPM_P2
2023/09/15 00:02:09;;;;;;;3.63;2.83;;;11.50;1.00;;;;;;4994564;28;20260;-75
2023/09/15 00:04:35;;;;;;;4.30;2.13;;;11.50;1.00;;;;;;4994523;28;20413;-74
2023/09/15 00:07:01;;;;;;;2.70;2.30;;;11.50;1.00;;;;;;4993631;28;20518;-75
2023/09/15 00:09:27;;;;;;;3.40;2.53;;;11.50;1.00;;;;;;4994399;28;20227;-75
2023/09/15 00:11:55;;;;;;;2.00;1.90;;;11.50;1.00;;;;;;4994336;28;20622;-75
2023/09/15 00:14:22;;;;;;;2.03;1.90;;;11.50;1.00;;;;;;4993834;28;20484;-75
2023/09/15 00:16:49;;;;;;;2.40;2.20;;;11.40;1.00;;;;;;4993188;28;20395;-75
2023/09/15 00:19:16;;;;;;;3.37;2.27;;;11.40;1.00;;;;;;4994280;28;20408;-74
2023/09/15 00:21:43;;;;;;;3.23;2.93;;;11.40;1.00;;;;;;4994235;28;20459;-75
2023/09/15 00:24:09;;;;;;;2.17;2.07;;;11.40;1.00;;;;;;4994174;28;20419;-75
2023/09/15 00:27:15;;;;;;;3.10;2.10;;;11.40;1.00;;;;;;4993050;28;20405;-75
2023/09/15 00:29:41;;;;;;;2.90;1.83;;;11.40;1.00;;;;;;4990525;28;20500;-75
2023/09/15 00:32:07;;;;;;;3.30;2.10;;;11.30;1.00;;;;;;4993928;28;20398;-75
2023/09/15 00:34:33;;;;;;;2.50;1.87;;;11.30;1.00;;;;;;4994121;28;20176;-75
2023/09/15 00:36:59;;;;;;;5.07;3.33;;;11.30;1.00;;;;;;4992865;28;20406;-74
2023/09/15 00:39:25;;;;;;;2.20;1.90;;;11.30;1.00;;;;;;4976456;28;20634;-74
2023/09/15 00:41:50;;;;;;;2.43;2.33;;;11.20;1.00;;;;;;4994008;28;20411;-75
2023/09/15 00:45:05;;;;;;;3.20;2.43;;;11.20;1.00;;;;;;4993753;28;20177;-75
2023/09/15 00:47:47;;;;;;;4.13;2.60;;;11.20;1.00;;;;;;4914550;28;20203;-74
2023/09/15 00:51:03;;;;;;;3.80;2.60;;;11.20;1.00;;;;;;4914714;29;20460;-74
2023/09/15 00:53:29;;;;;;;2.33;2.13;;;11.20;1.00;;;;;;4899174;29;20430;-75
2023/09/15 00:55:56;;;;;;;2.17;2.07;;;11.10;1.00;;;;;;4913881;29;21019;-74
2023/09/15 00:58:31;;;;;;;2.10;2.00;;;11.10;1.00;;;;;;4954630;28;20403;-74
2023/09/15 01:00:58;;;;;;;2.00;1.80;;;11.10;1.00;;;;;;4976414;28;20394;-75
2023/09/15 01:03:25;;;;;;;2.20;2.10;;;11.10;1.00;;;;;;4993001;28;20414;-75
2023/09/15 01:05:51;;;;;;;2.20;2.00;;;11.10;1.00;;;;;;4991751;28;20428;-75
2023/09/15 01:08:34;;;;;;;5.27;2.73;;;11.00;1.00;;;;;;4993271;28;20410;-74
2023/09/15 01:11:04;;;;;;;4.33;2.33;;;11.00;1.00;;;;;;4993386;28;20430;-74
2023/09/15 01:13:32;;;;;;;3.33;2.27;;;11.00;1.00;;;;;;4993376;28;20401;-75
2023/09/15 01:16:39;;;;;;;5.17;2.20;;;11.00;1.00;;;;;;4992385;28;20378;-75
2023/09/15 01:19:13;;;;;;;3.70;1.90;;;11.00;1.00;;;;;;4993937;28;20382;-75
2023/09/15 01:22:14;;;;;;;4.53;2.50;;;11.00;1.00;;;;;;4993263;28;20397;-75
2023/09/15 01:25:10;;;;;;;2.80;2.43;;;11.00;1.00;;;;;;4993152;28;20408;-74
2023/09/15 01:27:53;;;;;;;2.40;2.30;;;11.00;1.00;;;;;;4992430;28;20480;-75
2023/09/15 01:30:23;;;;;;;4.10;2.33;;;10.90;1.00;;;;;;4975999;28;20441;-74
2023/09/15 01:32:54;;;;;;;2.23;2.13;;;10.90;1.00;;;;;;4993274;28;20794;-74
2023/09/15 01:35:24;;;;;;;3.20;2.73;;;10.90;1.00;;;;;;4992201;28;20371;-75
2023/09/15 01:37:49;;;;;;;2.47;2.27;;;10.90;1.00;;;;;;4993181;28;20399;-75
2023/09/15 01:40:15;;;;;;;3.20;2.10;;;10.90;1.00;;;;;;4975951;28;20939;-75
2023/09/15 01:42:43;;;;;;;6.80;2.07;;;10.90;1.00;;;;;;4992605;28;20179;-75
2023/09/15 01:45:09;;;;;;;2.27;2.17;;;10.80;1.00;;;;;;4992995;28;20176;-75
2023/09/15 01:47:36;;;;;;;3.00;2.23;;;10.80;1.00;;;;;;4992200;28;20409;-74
2023/09/15 01:50:05;;;;;;;3.00;2.80;;;10.80;1.00;;;;;;4992964;28;20451;-75
2023/09/15 01:52:31;;;;;;;6.80;2.50;;;10.80;1.00;;;;;;4993181;28;20475;-74
2023/09/15 01:54:58;;;;;;;3.93;2.13;;;10.80;1.00;;;;;;4975557;28;20427;-74
2023/09/15 01:57:24;;;;;;;2.43;2.23;;;10.80;1.00;;;;;;4991998;28;20835;-75
2023/09/15 02:00:20;;;;;;;5.57;2.20;;;10.80;1.00;;;;;;4992504;28;20416;-75
2023/09/15 02:02:49;;;;;;;3.07;2.53;;;10.80;1.00;;;;;;4984646;28;20416;-76
2023/09/15 02:05:31;;;;;;;2.37;2.27;;;10.70;1.00;;;;;;4974816;28;20443;-74
2023/09/15 02:07:57;;;;;;;3.00;2.70;;;10.80;1.00;;;;;;4992705;28;20440;-74
2023/09/15 02:10:23;;;;;;;2.47;2.33;;;10.70;1.00;;;;;;4992996;28;20829;-74
2023/09/15 02:12:49;;;;;;;3.87;2.93;;;10.70;1.00;;;;;;4975254;28;20182;-74
2023/09/15 02:15:17;;;;;;;3.97;1.97;;;10.70;1.00;;;;;;4992400;28;20398;-74
2023/09/15 02:17:43;;;;;;;4.70;2.10;;;10.70;1.00;;;;;;4994264;28;20887;-74
2023/09/15 02:20:12;;;;;;;2.57;2.23;;;10.70;1.00;;;;;;4996450;28;20393;-74
2023/09/15 02:22:44;;;;;;;2.50;2.30;;;10.70;1.00;;;;;;4996554;28;20236;-74
2023/09/15 02:25:10;;;;;;;2.10;2.00;;;10.60;1.00;;;;;;4979003;28;20420;-74
2023/09/15 02:27:39;;;;;;;2.70;2.13;;;10.60;1.00;;;;;;4995429;28;20414;-74
2023/09/15 02:30:26;;;;;;;2.33;2.13;;;10.60;1.00;;;;;;4996217;28;20430;-74
2023/09/15 02:33:02;;;;;;;2.23;2.13;;;10.60;1.00;;;;;;4995385;28;20419;-75
2023/09/15 02:35:51;;;;;;;3.10;1.93;;;10.60;1.00;;;;;;4995188;28;20412;-74
2023/09/15 02:38:17;;;;;;;3.30;2.60;;;10.60;1.00;;;;;;4983496;28;20471;-74
2023/09/15 02:40:42;;;;;;;2.00;1.90;;;10.60;1.00;;;;;;4996066;28;20411;-74
2023/09/15 02:43:11;;;;;;;3.73;2.47;;;10.50;1.00;;;;;;4979092;28;20291;-74
2023/09/15 02:45:37;;;;;;;3.23;2.00;;;10.50;1.00;;;;;;4995127;28;20179;-75
2023/09/15 02:48:03;;;;;;;2.67;2.47;;;10.50;1.00;;;;;;4995631;28;20435;-75
2023/09/15 02:50:30;;;;;;;2.10;2.00;;;10.50;1.00;;;;;;4978543;28;20567;-74
2023/09/15 02:52:55;;;;;;;3.50;2.50;;;10.50;1.00;;;;;;4995314;28;20374;-74
2023/09/15 02:55:21;;;;;;;4.43;2.30;;;10.50;1.00;;;;;;4994994;28;20412;-74
2023/09/15 02:57:56;;;;;;;2.10;2.00;;;10.50;1.00;;;;;;4995701;28;20223;-74
2023/09/15 03:00:22;;;;;;;2.30;2.20;;;10.50;1.00;;;;;;4995777;28;20385;-74
2023/09/15 03:02:48;;;;;;;2.13;2.03;;;10.50;1.00;;;;;;4995655;28;20400;-74
2023/09/15 03:05:14;;;;;;;2.17;1.90;;;10.50;1.00;;;;;;4977867;28;20545;-75
2023/09/15 03:07:40;;;;;;;3.63;2.37;;;10.50;1.00;;;;;;4994995;28;20229;-75
2023/09/15 03:10:10;;;;;;;2.63;2.43;;;10.50;1.00;;;;;;4995538;28;20454;-75
2023/09/15 03:12:37;;;;;;;2.20;2.10;;;10.50;1.00;;;;;;4992852;28;20410;-75
2023/09/15 03:15:06;;;;;;;2.47;2.23;;;10.50;1.00;;;;;;4995424;28;20721;-74
2023/09/15 03:17:32;;;;;;;3.83;2.13;;;10.50;1.00;;;;;;4994313;28;20518;-75
2023/09/15 03:19:58;;;;;;;7.30;2.60;;;10.50;1.00;;;;;;4995303;28;20408;-75
2023/09/15 03:22:24;;;;;;;2.73;2.47;;;10.50;1.00;;;;;;4977962;28;20487;-75
2023/09/15 03:24:49;;;;;;;3.00;2.70;;;10.40;1.00;;;;;;4995326;28;20964;-74
2023/09/15 03:27:15;;;;;;;2.97;2.70;;;10.40;1.00;;;;;;4993323;28;20593;-75
2023/09/15 03:29:41;;;;;;;4.53;2.93;;;10.40;1.00;;;;;;4976625;28;20201;-74
2023/09/15 03:32:07;;;;;;;4.63;2.77;;;10.40;1.00;;;;;;4976803;28;20189;-74
2023/09/15 03:34:32;;;;;;;3.20;3.00;;;10.40;1.00;;;;;;4995098;28;20212;-74
2023/09/15 03:37:01;;;;;;;2.70;2.60;;;10.40;1.00;;;;;;4994172;28;20677;-74
2023/09/15 03:39:27;;;;;;;2.67;2.40;;;10.40;1.00;;;;;;4976571;28;20188;-75
2023/09/15 03:41:53;;;;;;;2.83;2.60;;;10.40;1.00;;;;;;4977707;28;20436;-74
2023/09/15 03:44:21;;;;;;;2.63;2.33;;;10.40;1.00;;;;;;4994806;28;20177;-74
2023/09/15 03:46:47;;;;;;;3.43;2.50;;;10.40;1.00;;;;;;4992422;28;20197;-74
2023/09/15 03:49:12;;;;;;;3.10;2.87;;;10.30;1.00;;;;;;4976732;28;20521;-75
2023/09/15 03:51:38;;;;;;;3.20;2.80;;;10.30;1.00;;;;;;4994779;28;20936;-75
2023/09/15 03:54:04;;;;;;;3.83;2.40;;;10.30;1.00;;;;;;4994758;28;20256;-74
2023/09/15 03:56:31;;;;;;;5.57;3.00;;;10.30;1.00;;;;;;4976624;28;20626;-74
2023/09/15 03:58:57;;;;;;;3.70;2.50;;;10.30;1.00;;;;;;4994460;28;20382;-75
2023/09/15 04:01:23;;;;;;;4.87;2.70;;;10.30;1.00;;;;;;4992996;28;20432;-74
2023/09/15 04:03:49;;;;;;;2.30;2.20;;;10.20;1.00;;;;;;4977196;28;20746;-75
2023/09/15 04:06:16;;;;;;;2.43;2.23;;;10.20;1.00;;;;;;4993458;28;20386;-75
2023/09/15 04:08:42;;;;;;;3.00;2.50;;;10.20;1.00;;;;;;4993925;28;20458;-75
2023/09/15 04:11:08;;;;;;;2.83;2.63;;;10.20;1.00;;;;;;4994471;28;21009;-75
2023/09/15 04:13:33;;;;;;;3.50;3.20;;;10.20;1.00;;;;;;4994202;28;20412;-75
2023/09/15 04:16:00;;;;;;;4.70;2.60;;;10.20;1.00;;;;;;4973320;28;20594;-75
2023/09/15 04:18:26;;;;;;;2.87;2.67;;;10.20;1.00;;;;;;4994220;28;20192;-74
2023/09/15 04:20:54;;;;;;;4.00;3.00;;;10.20;1.00;;;;;;4992419;28;20419;-74
2023/09/15 04:23:20;;;;;;;2.90;2.60;;;10.20;1.00;;;;;;4994122;28;20430;-74
2023/09/15 04:25:45;;;;;;;2.90;2.70;;;10.20;1.00;;;;;;4992911;28;20723;-74
2023/09/15 04:28:12;;;;;;;5.63;2.80;;;10.20;1.00;;;;;;4976487;28;20447;-74
2023/09/15 04:30:38;;;;;;;3.10;2.90;;;10.20;1.00;;;;;;4992352;28;20216;-75
2023/09/15 04:33:04;;;;;;;5.27;3.17;;;10.20;1.30;;;;;;4976919;28;20416;-74
2023/09/15 04:35:30;;;;;;;4.10;3.80;;;10.20;2.10;;;;;;4991270;28;20183;-74
2023/09/15 04:37:55;;;;;;;3.33;2.97;;;10.20;4.00;;;;;;4993902;28;20199;-74
2023/09/15 04:40:21;;;;;;;3.27;3.03;;;10.20;5.70;;;;;;4994024;28;20219;-76
2023/09/15 04:42:47;;;;;;;6.23;3.03;;;10.20;6.90;;;;;;4993367;28;20165;-75
2023/09/15 04:45:13;;;;;;;7.40;2.87;;;10.20;8.00;;;;;;4991939;28;20466;-75
2023/09/15 04:47:40;;;;;;;4.00;2.47;;;10.20;8.30;;;;;;4973785;28;20207;-75
2023/09/15 04:50:07;;;;;;;5.17;2.73;;;10.20;9.20;;;;;;4974238;28;20189;-75
2023/09/15 04:52:33;;;;;;;2.70;2.60;;;10.20;10.20;;;;;;4974188;28;20448;-75
2023/09/15 04:54:59;;;;;;;4.23;3.30;;;10.20;11.50;;;;;;4974150;28;20499;-74
2023/09/15 04:57:25;;;;;;;4.57;3.40;;;10.20;14.30;;;;;;4973214;28;20396;-75
2023/09/15 04:59:56;;;;;;;3.40;3.10;;;10.20;16.90;;;;;;4974164;28;20253;-74
2023/09/15 05:02:25;;;;;;;3.40;3.10;;;10.20;18.60;;;;;;4974021;28;20417;-75
2023/09/15 05:04:52;;;;;;;2.90;2.70;;;10.20;20.40;;;;;;4973942;28;20491;-75
2023/09/15 05:07:18;;;;;;;4.30;2.73;;;10.20;22.90;;;;;;4973110;28;20440;-75
2023/09/15 05:09:45;;;;;;;3.90;2.87;;;10.20;24.00;;;;;;4974082;28;20412;-74
2023/09/15 05:12:11;;;;;;;3.53;2.90;;;10.20;26.00;;;;;;4974060;28;20378;-74
2023/09/15 05:14:37;;;;;;;3.70;3.40;;;10.20;27.60;;;;;;4973028;28;20478;-74
2023/09/15 05:17:03;;;;;;;3.47;3.20;;;10.20;28.80;;;;;;4973188;28;20494;-74
2023/09/15 05:19:29;;;;;;;3.07;2.87;;;10.20;31.30;;;;;;4973489;28;20181;-74
2023/09/15 05:21:55;;;;;;;2.90;2.70;;;10.20;33.00;;;;;;4974020;28;20438;-74
2023/09/15 05:24:20;;;;;;;4.03;3.13;;;10.20;35.50;;;;;;4973915;28;20196;-74
2023/09/15 05:26:46;;;;;;;4.13;2.63;;;10.30;39.90;;;;;;4972962;28;20193;-74
2023/09/15 05:29:12;;;;;;;2.80;2.60;;;10.30;42.70;;;;;;4973813;28;20193;-74
2023/09/15 05:31:38;;;;;;;3.07;2.83;;;10.30;46.70;;;;;;4983828;28;20176;-74
2023/09/15 05:34:04;;;;;;;3.50;2.93;;;10.30;51.00;;;;;;4993118;28;20385;-74
2023/09/15 05:36:36;;;;;;;3.73;2.43;;;10.30;54.60;;;;;;4991645;28;20440;-74
2023/09/15 05:39:02;;;;;;;9.13;6.70;;;10.30;58.50;;;;;;4993207;28;20198;-74
2023/09/15 05:41:28;;;;;;;5.70;5.10;;;10.40;63.40;;;;;;4993006;28;20375;-74
2023/09/15 05:43:54;;;;;;;8.80;6.40;;;10.40;69.60;;;;;;4993212;28;20415;-73
2023/09/15 05:46:23;;;;;;;7.63;5.23;;;10.40;71.70;;;;;;4974681;28;20176;-77
2023/09/15 05:48:52;;;;;;;11.47;6.43;;;10.50;76.90;;;;;;4992991;28;20177;-79
2023/09/15 05:51:21;;;;;;;5.53;4.17;;;10.50;82.80;;;;;;4993008;28;20454;-77
2023/09/15 05:53:47;;;;;;;7.67;4.03;;;10.60;92.20;;;;;;4996134;28;20400;-75
2023/09/15 05:56:16;;;;;;;7.90;4.20;;;10.70;92.30;;;;;;4978325;28;20412;-75
2023/09/15 05:58:42;;;;;;;4.47;3.10;;;10.80;92.30;;;;;;4996709;28;20479;-75
2023/09/15 06:04:16;;;;;;;3.00;2.80;;;10.90;98.40;;;;;;4996666;28;20248;-75
2023/09/15 06:06:42;;;;;;;3.47;2.90;;;11.00;99.90;;;;;;4995665;28;20836;-75
2023/09/15 06:09:09;;;;;;;31.97;15.90;;;11.00;99.90;;;;;;4996797;28;20181;-78
2023/09/15 06:11:34;;;;;;;32.80;17.80;;;11.10;99.90;;;;;;4996609;28;20387;-74
2023/09/15 06:14:00;;;;;;;11.50;7.67;;;11.20;99.90;;;;;;4996142;28;20740;-75
2023/09/15 06:16:26;;;;;;;9.17;6.00;;;11.30;99.90;;;;;;4995660;28;20573;-75
2023/09/15 06:18:51;;;;;;;4.20;3.80;;;11.40;99.90;;;;;;4996484;28;20188;-76
2023/09/15 06:21:17;;;;;;;3.27;2.97;;;11.50;99.90;;;;;;4979004;28;20533;-76
2023/09/15 06:23:43;;;;;;;5.63;2.77;;;11.50;99.90;;;;;;4996496;28;20181;-76
2023/09/15 06:26:09;;;;;;;2.47;2.10;;;11.60;99.90;;;;;;4995546;28;20390;-74
2023/09/15 06:28:35;;;;;;;6.30;1.90;;;11.60;99.90;;;;;;4978782;28;20201;-75
2023/09/15 06:31:01;;;;;;;3.07;2.10;;;11.70;99.90;;;;;;4996092;28;20263;-75
2023/09/15 06:33:26;;;;;;;4.40;2.87;;;11.80;99.90;;;;;;4978732;28;20412;-75
2023/09/15 06:35:52;;;;;;;3.10;2.10;;;11.80;99.90;;;;;;4994007;28;20208;-75
2023/09/15 06:38:24;;;;;;;3.73;2.23;;;11.90;99.90;;;;;;4995943;28;20322;-74
2023/09/15 06:40:59;;;;;;;4.67;2.60;;;12.00;99.90;;;;;;4978572;28;20495;-74
2023/09/15 06:43:24;;;;;;;2.60;2.40;;;12.10;99.90;;;;;;4996062;28;20408;-74
2023/09/15 06:46:22;;;;;;;2.90;2.70;;;12.30;99.90;;;;;;4995101;28;20419;-75
2023/09/15 06:48:49;;;;;;;3.90;2.73;;;12.40;99.90;;;;;;4995943;28;20518;-73
2023/09/15 06:51:26;;;;;;;4.97;2.37;;;12.50;99.90;;;;;;4995241;28;20464;-75
2023/09/15 06:54:24;;;;;;;3.67;3.47;;;12.60;99.90;;;;;;4995872;28;20399;-75
2023/09/15 06:56:53;;;;;;;2.97;2.77;;;12.70;99.90;;;;;;4897007;29;20479;-75
2023/09/15 07:00:15;;;;;;;2.97;2.77;;;12.80;99.90;;;;;;4988187;28;21021;-74
2023/09/15 07:02:41;;;;;;;2.60;2.40;;;12.90;99.90;;;;;;4970554;28;20491;-76
2023/09/15 07:12:14;;;;;;;3.20;2.73;;;13.30;99.90;;;;;;4860260;29;20429;-76
2023/09/15 07:22:17;;;;;;;3.73;2.73;;;13.70;90.80;;;;;;4805451;29;20404;-74
2023/09/15 07:28:41;;;;;;;3.40;2.83;;;13.90;46.90;;;;;;4729010;29;20972;-74
2023/09/15 07:35:22;;;;;;;2.57;2.37;;;14.10;16.50;;;;;;4717317;30;20422;-75
2023/09/15 07:51:47;;;;;;;3.00;2.70;;;14.80;1.00;;;;;;4634114;30;20461;-76
2023/09/15 07:54:13;;;;;;;5.77;2.40;;;15.00;1.00;;;;;;4674922;30;20425;-76
2023/09/15 07:56:39;;;;;;;2.70;2.50;;;15.10;1.00;;;;;;4757396;30;20766;-74
2023/09/15 08:05:49;;;;;;;4.20;2.83;;;15.40;1.00;;;;;;4914751;29;20435;-75
2023/09/15 08:08:15;;;;;;;4.57;2.87;;;15.60;1.00;;;;;;4945744;28;20554;-76
2023/09/15 08:10:51;;;;;;;2.40;2.20;;;15.70;1.00;;;;;;4977005;28;20558;-76
2023/09/15 08:13:36;;;;;;;3.60;2.47;;;15.80;1.00;;;;;;4976409;28;20454;-75
2023/09/15 08:16:04;;;;;;;6.67;3.07;;;15.90;1.00;;;;;;4993064;28;20462;-73
2023/09/15 08:23:04;;;;;;;;;;;;;;;;;;;;;
2023/09/15 08:32:34;;;;;;;2.63;2.43;;;16.50;1.00;;;;;;4858998;29;20431;-75
2023/09/15 08:35:00;;;;;;;4.63;2.40;;;16.70;1.00;;;;;;4859197;29;20442;-75
2023/09/15 08:37:26;;;;;;;5.60;2.27;;;16.80;1.00;;;;;;4971747;28;20440;-73
2023/09/15 08:40:13;;;;;;;;;;;;;;;;;;;;;
2023/09/15 08:42:52;;;;;;;2.47;2.27;;;17.10;1.00;;;;;;4993625;28;20416;-73
2023/09/15 08:46:05;;;;;;;5.40;2.47;;;17.20;1.00;;;;;;4993137;28;20776;-76
2023/09/15 08:48:39;;;;;;;5.27;2.60;;;17.30;1.00;;;;;;4993682;28;20434;-73
2023/09/15 08:51:06;;;;;;;3.17;2.70;;;17.60;1.00;;;;;;4993623;28;20460;-76
2023/09/15 08:53:37;;;;;;;7.07;3.07;;;17.70;1.00;;;;;;4993729;28;20467;-76
2023/09/15 08:56:04;;;;;;;3.30;2.60;;;18.00;1.00;;;;;;4991954;28;21156;-77
2023/09/15 08:58:40;;;;;;;;;;;;;;;;;;;;;
2023/09/15 09:01:15;;;;;;;2.67;2.40;;;18.20;1.00;;;;;;4993123;28;20407;-74
2023/09/15 09:03:43;;;;;;;4.63;2.83;;;18.30;1.00;;;;;;4993519;28;20415;-74
2023/09/15 09:22:50;;;;;;;6.13;2.23;;;19.60;1.00;;;;;;4858646;29;20409;-75
2023/09/15 09:25:30;;;;;;;8.23;2.40;;;20.10;1.00;;;;;;4898200;29;20891;-75
2023/09/15 09:28:18;;;;;;;3.93;2.70;;;20.40;1.00;;;;;;4982568;28;20440;-77
2023/09/15 09:31:05;;;;;;;5.43;2.70;;;20.80;1.00;;;;;;4976082;28;20546;-73
2023/09/15 09:37:38;;;;;;;4.60;2.67;;;21.30;1.00;;;;;;4992556;28;20464;-73
2023/09/15 09:40:06;;;;;;;3.57;1.83;;;21.60;1.00;;;;;;4992872;28;20458;-76
2023/09/15 09:42:41;;;;;;;2.50;2.30;;;21.70;1.00;;;;;;4993233;28;20422;-76
2023/09/15 09:45:12;;;;;;;2.70;2.50;;;21.90;1.00;;;;;;4993134;28;20396;-78
2023/09/15 09:48:16;;;;;;;7.17;2.33;;;22.10;1.00;;;;;;4992802;28;20522;-77
2023/09/15 09:50:42;;;;;;;3.40;2.30;;;22.40;1.00;;;;;;4993228;28;20542;-77
2023/09/15 10:00:04;;;;;;;4.43;2.07;;;22.80;99.90;;;;;;4993067;28;20418;-77
2023/09/15 10:02:33;;;;;;;3.50;2.07;;;22.90;99.90;;;;;;4993226;28;20412;-78
2023/09/15 10:05:44;;;;;;;7.53;2.00;;;22.90;99.90;;;;;;4992910;28;20990;-77
2023/09/15 10:08:46;;;;;;;2.10;1.70;;;23.10;99.90;;;;;;4975815;28;20525;-78
2023/09/15 10:11:46;;;;;;;3.00;2.10;;;22.90;99.90;;;;;;4979920;28;20471;-76
2023/09/15 10:14:17;;;;;;;3.87;2.20;;;22.50;99.90;;;;;;4975015;28;20850;-78
2023/09/15 10:17:30;;;;;;;2.73;2.07;;;22.10;99.90;;;;;;4992293;28;20434;-77
2023/09/15 10:20:32;;;;;;;3.10;1.80;;;22.00;99.90;;;;;;4966899;28;20502;-71
2023/09/15 10:23:10;;;;;;;;;;;;;;;;;;;;;
2023/09/15 10:26:39;;;;;;;4.23;1.73;;;22.30;99.90;;;;;;4991905;28;20396;-73
2023/09/15 10:29:35;;;;;;;3.97;2.20;;;22.70;99.90;;;;;;4992813;28;20419;-79
2023/09/15 10:32:05;;;;;;;3.80;1.70;;;23.10;99.90;;;;;;4975276;28;20420;-77
2023/09/15 10:34:55;;;;;;;2.97;2.00;;;22.90;99.90;;;;;;4992416;28;21160;-79
2023/09/15 10:37:21;;;;;;;4.70;1.73;;;23.00;99.90;;;;;;4979151;28;20996;-79
2023/09/15 10:40:10;;;;;;;3.47;1.77;;;23.50;99.90;;;;;;4996140;28;20416;-71
2023/09/15 10:42:48;;;;;;;3.80;2.10;;;23.80;99.90;;;;;;4996245;28;20423;-72
2023/09/15 10:45:14;;;;;;;3.73;3.10;;;23.90;99.90;;;;;;4978274;28;21018;-76
2023/09/15 10:47:42;;;;;;;8.93;2.80;;;24.20;99.90;;;;;;4995460;28;20522;-74
2023/09/15 10:50:27;;;;;;;3.37;2.27;;;24.00;99.90;;;;;;4995844;28;20463;-80
2023/09/15 10:52:53;;;;;;;3.40;2.03;;;23.80;99.90;;;;;;4995813;28;20932;-73
2023/09/15 10:55:19;;;;;;;7.80;2.90;;;23.30;99.90;;;;;;4995305;28;20432;-78
2023/09/15 10:57:45;;;;;;;5.13;2.70;;;23.00;99.90;;;;;;4995612;28;20212;-80
2023/09/15 11:00:12;;;;;;;3.30;2.40;;;23.10;99.90;;;;;;4978687;28;20452;-80
2023/09/15 11:02:41;;;;;;;4.80;2.23;;;23.40;99.90;;;;;;4996001;28;20255;-75
2023/09/15 11:05:11;;;;;;;4.13;2.40;;;23.30;99.90;;;;;;4995771;28;20408;-71
2023/09/15 11:07:41;;;;;;;3.57;2.10;;;23.10;99.90;;;;;;4977617;28;20599;-80
2023/09/15 11:10:07;;;;;;;2.67;1.83;;;22.90;99.90;;;;;;4995263;28;20531;-79
2023/09/15 11:12:33;;;;;;;3.00;2.23;;;22.90;99.90;;;;;;4995668;28;20401;-81
2023/09/15 11:15:00;;;;;;;3.53;1.90;;;23.00;99.90;;;;;;4995780;28;20412;-81
2023/09/15 11:17:34;;;;;;;4.70;1.70;;;22.90;99.90;;;;;;4994661;28;20185;-72
2023/09/15 11:20:05;;;;;;;3.53;2.40;;;22.90;99.90;;;;;;4995559;28;20405;-80
2023/09/15 11:22:33;;;;;;;2.30;2.10;;;22.90;99.90;;;;;;4995546;28;20408;-74
2023/09/15 11:25:19;;;;;;;3.53;1.87;;;22.90;99.90;;;;;;4995432;28;20459;-73
2023/09/15 11:27:49;;;;;;;3.70;2.33;;;22.60;99.90;;;;;;4992926;28;20452;-71
2023/09/15 11:30:16;;;;;;;5.40;2.10;;;22.70;99.90;;;;;;4994371;28;20817;-77
2023/09/15 11:33:00;;;;;;;2.93;2.27;;;22.70;99.90;;;;;;4995498;28;20447;-71
2023/09/15 11:38:24;;;;;;;7.10;2.40;;;23.00;99.90;;;;;;4994832;28;20435;-80
2023/09/15 11:40:53;;;;;;;4.83;2.20;;;23.30;99.90;;;;;;4995236;28;20415;-80
2023/09/15 11:43:25;;;;;;;5.90;2.70;;;23.50;99.90;;;;;;4978044;28;20416;-70
2023/09/15 11:45:52;;;;;;;3.70;1.73;;;23.40;99.90;;;;;;4976503;28;20478;-73
2023/09/15 11:48:21;;;;;;;1.93;1.70;;;23.30;99.90;;;;;;4994812;28;20866;-79
2023/09/15 11:50:50;;;;;;;5.83;3.10;;;23.30;99.90;;;;;;4994581;28;20452;-78
2023/09/15 11:53:26;;;;;;;2.97;2.37;;;23.40;99.90;;;;;;4977564;28;20420;-73
2023/09/15 11:59:17;;;;;;;2.60;2.40;;;23.20;99.90;;;;;;4994864;28;20407;-75
2023/09/15 12:01:45;;;;;;;2.90;2.37;;;23.40;99.90;;;;;;4994780;28;20483;-72
2023/09/15 12:05:00;;;;;;;2.93;2.63;;;23.80;99.90;;;;;;4994784;28;20424;-79
2023/09/15 12:07:27;;;;;;;2.90;2.00;;;24.40;99.90;;;;;;4992885;28;20466;-85
2023/09/15 12:09:52;;;;;;;2.53;2.33;;;24.80;99.90;;;;;;4994645;28;20448;-82
2023/09/15 12:12:18;;;;;;;6.03;2.20;;;25.30;99.90;;;;;;4994570;28;20813;-81
2023/09/15 12:14:46;;;;;;;3.50;2.87;;;25.60;99.90;;;;;;4977097;28;20638;-76
2023/09/15 12:17:16;;;;;;;7.23;3.20;;;26.40;99.90;;;;;;4976078;28;20312;-80
2023/09/15 12:19:42;;;;;;;2.97;1.53;;;27.10;99.90;;;;;;4994486;28;20403;-83
2023/09/15 12:22:08;;;;;;;5.37;2.10;;;27.80;99.90;;;;;;4977145;28;20948;-76
2023/09/15 12:24:35;;;;;;;2.87;1.80;;;27.80;99.90;;;;;;4993723;28;20251;-80
2023/09/15 12:27:02;;;;;;;2.50;2.10;;;27.60;99.90;;;;;;4993388;28;20435;-79
2023/09/15 12:29:28;;;;;;;5.33;2.30;;;27.80;99.90;;;;;;4994238;28;20407;-76
2023/09/15 12:31:56;;;;;;;2.00;1.70;;;28.40;99.90;;;;;;4994362;28;20516;-76
2023/09/15 12:34:24;;;;;;;2.23;2.03;;;28.20;99.90;;;;;;4994072;28;20412;-82
2023/09/15 12:36:55;;;;;;;3.40;2.70;;;28.60;99.90;;;;;;4993269;28;20428;-76
2023/09/15 12:39:21;;;;;;;2.63;1.80;;;29.10;99.90;;;;;;4994227;28;20412;-83
2023/09/15 12:41:58;;;;;;;3.93;1.50;;;29.40;99.90;;;;;;4994127;28;20404;-83
2023/09/15 12:44:25;;;;;;;3.20;2.20;;;28.40;99.90;;;;;;4993441;28;20477;-83
2023/09/15 12:46:51;;;;;;;3.00;1.63;;;28.30;99.90;;;;;;4993093;28;20499;-76
2023/09/15 12:49:17;;;;;;;3.97;1.93;;;28.90;99.90;;;;;;4993654;28;20425;-78
2023/09/15 12:51:43;;;;;;;5.90;1.93;;;29.50;99.90;;;;;;4993170;28;20421;-76
2023/09/15 12:54:08;;;;;;;4.27;2.47;;;30.00;99.90;;;;;;4993802;28;20173;-77
2023/09/15 12:56:34;;;;;;;4.20;1.90;;;30.30;99.90;;;;;;4992608;28;20192;-83
2023/09/15 12:59:00;;;;;;;1.83;1.60;;;30.50;99.90;;;;;;4993481;28;20200;-83
2023/09/15 13:01:26;;;;;;;5.30;2.50;;;30.30;99.90;;;;;;4992325;28;20263;-83
2023/09/15 13:03:51;;;;;;;3.27;1.90;;;30.00;99.90;;;;;;4993541;28;20177;-77
2023/09/15 13:06:17;;;;;;;2.47;1.80;;;30.70;99.90;;;;;;4975194;28;20423;-83
2023/09/15 13:08:43;;;;;;;3.10;1.90;;;31.30;99.90;;;;;;4993550;28;20590;-75
2023/09/15 13:11:08;;;;;;;2.33;1.90;;;31.80;99.90;;;;;;4993215;28;20207;-76
2023/09/15 13:13:34;;;;;;;5.00;2.80;;;32.20;99.90;;;;;;4993731;28;20203;-78
2023/09/15 13:16:00;;;;;;;3.23;2.40;;;32.60;99.90;;;;;;4975241;28;20180;-76
2023/09/15 13:18:25;;;;;;;3.17;2.00;;;32.60;99.90;;;;;;4975622;28;20192;-77
2023/09/15 13:20:51;;;;;;;4.00;2.47;;;32.00;99.90;;;;;;4976227;28;20176;-77
2023/09/15 13:23:16;;;;;;;3.40;2.10;;;31.30;99.90;;;;;;4993377;28;20260;-76
2023/09/15 13:25:42;;;;;;;3.50;1.63;;;31.30;99.90;;;;;;4992381;28;20165;-83
2023/09/15 13:28:10;;;;;;;3.47;1.83;;;31.90;99.90;;;;;;4993709;28;20220;-80
2023/09/15 13:30:36;;;;;;;3.27;2.03;;;31.80;99.90;;;;;;4993306;28;20197;-81
2023/09/15 13:33:03;;;;;;;3.40;2.17;;;31.60;99.90;;;;;;4993379;28;20435;-83
2023/09/15 13:35:28;;;;;;;4.17;2.43;;;31.60;99.90;;;;;;4992537;28;20175;-84
2023/09/15 13:37:54;;;;;;;2.90;2.27;;;31.60;99.90;;;;;;4992735;28;20436;-84
2023/09/15 13:40:20;;;;;;;2.33;2.13;;;31.30;99.90;;;;;;4993303;28;20180;-84
2023/09/15 13:42:45;;;;;;;6.57;2.33;;;31.60;99.90;;;;;;4993481;28;20583;-75
2023/09/15 13:45:15;;;;;;;4.73;2.60;;;31.00;99.90;;;;;;4992993;28;20180;-78
2023/09/15 13:47:41;;;;;;;4.43;2.40;;;30.40;99.90;;;;;;4992959;28;20250;-84
2023/09/15 13:50:07;;;;;;;2.80;1.77;;;30.20;99.90;;;;;;4993159;28;20483;-76
2023/09/15 13:52:33;;;;;;;5.80;2.10;;;29.80;99.90;;;;;;4993270;28;20408;-79
2023/09/15 13:54:59;;;;;;;3.33;2.23;;;29.10;99.90;;;;;;4992922;28;20908;-79
2023/09/15 13:57:26;;;;;;;7.47;3.80;;;28.80;99.90;;;;;;4992068;28;20451;-76
2023/09/15 13:59:51;;;;;;;2.30;2.10;;;28.40;99.90;;;;;;4975803;28;20434;-83
2023/09/15 14:02:18;;;;;;;5.80;2.53;;;27.90;99.90;;;;;;4993247;28;20956;-75
2023/09/15 14:04:47;;;;;;;4.00;2.30;;;28.00;99.90;;;;;;4993406;28;20569;-78
2023/09/15 14:07:13;;;;;;;6.97;3.17;;;28.70;99.90;;;;;;4992055;28;20454;-76
2023/09/15 14:09:38;;;;;;;4.13;2.17;;;29.70;99.90;;;;;;4993111;28;20971;-83
2023/09/15 14:12:04;;;;;;;2.87;1.97;;;30.70;99.90;;;;;;4992661;28;20172;-76
2023/09/15 14:14:30;;;;;;;3.13;2.77;;;31.70;99.90;;;;;;4978916;28;20169;-79
2023/09/15 14:16:56;;;;;;;6.30;2.60;;;32.40;99.90;;;;;;4995935;28;20247;-83
2023/09/15 14:19:22;;;;;;;6.57;3.07;;;33.30;99.90;;;;;;4996804;28;20812;-83
2023/09/15 14:21:48;;;;;;;2.67;2.30;;;33.80;99.90;;;;;;4996727;28;20215;-76
2023/09/15 14:24:14;;;;;;;2.17;1.90;;;32.90;99.90;;;;;;4979217;28;20701;-77
2023/09/15 14:26:41;;;;;;;3.57;2.30;;;33.20;99.90;;;;;;4978316;28;20439;-80
2023/09/15 14:29:07;;;;;;;4.13;2.57;;;33.10;99.90;;;;;;4995942;28;20454;-81
2023/09/15 14:31:33;;;;;;;4.27;2.70;;;32.90;99.90;;;;;;4996471;28;20466;-76
2023/09/15 14:34:00;;;;;;;3.13;1.83;;;32.80;99.90;;;;;;4996676;28;20200;-77
2023/09/15 14:36:26;;;;;;;5.07;3.00;;;32.70;99.90;;;;;;4995544;28;20403;-73
2023/09/15 14:38:52;;;;;;;3.43;2.30;;;33.10;99.90;;;;;;4996564;28;20450;-72
2023/09/15 14:41:18;;;;;;;5.40;2.67;;;33.50;99.90;;;;;;4996562;28;20400;-73
2023/09/15 14:43:44;;;;;;;2.40;2.20;;;33.10;99.90;;;;;;4996350;28;20688;-78
2023/09/15 14:46:11;;;;;;;5.73;3.00;;;33.10;99.90;;;;;;4995491;28;20404;-79